Time;durP1;ratioP1;P1;durP2;ratioP2;P2;SDS_P1;SDS_P2;PMS_P1;PMS_P2;Temp;Humidity;BMP_temperature;BMP_pressure;BME280_temperature;BME280_humidity;BME280_pressure;Samples;Min_cycle;Max_cycle;Signal;HPM_P1;HPM_P2
2022/08/24 00:00:59;;;;;;;11.90;6.63;;;;;;;-141.28;100.00;48077.69;5049952;28;20581;-76
2022/08/24 00:03:26;;;;;;;9.97;6.43;;;;;;;-141.28;100.00;48085.53;5050108;28;20207;-75
2022/08/24 00:05:53;;;;;;;9.97;6.33;;;;;;;-141.28;100.00;48093.38;5050191;28;20249;-75
2022/08/24 00:08:21;;;;;;;9.27;6.17;;;;;;;-141.28;100.00;48093.38;5049527;28;20209;-74
2022/08/24 00:10:47;;;;;;;10.37;6.67;;;;;;;-141.28;100.00;48101.22;5050232;28;20212;-75
2022/08/24 00:13:15;;;;;;;8.73;6.63;;;;;;;-141.28;100.00;48099.25;5050002;28;20197;-75
2022/08/24 00:15:43;;;;;;;8.70;6.60;;;;;;;-141.28;100.00;48097.31;5050127;28;20196;-75
2022/08/24 00:18:12;;;;;;;10.43;7.20;;;;;;;-141.28;100.00;48091.41;5049834;28;20244;-74
2022/08/24 00:20:39;;;;;;;7.93;6.30;;;;;;;-141.28;100.00;48081.59;5050071;28;20626;-74
2022/08/24 00:23:08;;;;;;;10.20;7.20;;;;;;;-141.28;100.00;48093.38;5050837;28;20201;-75
2022/08/24 00:25:35;;;;;;;10.10;6.57;;;;;;;-141.28;100.00;48093.38;5051759;28;20233;-74
2022/08/24 00:28:03;;;;;;;12.80;7.23;;;;;;;-141.28;100.00;48081.59;5049109;28;20580;-74
2022/08/24 00:30:31;;;;;;;12.27;7.30;;;;;;;-141.28;100.00;48077.69;5036607;28;20535;-74
2022/08/24 00:32:59;;;;;;;11.17;7.50;;;;;;;-141.28;100.00;48069.84;5051951;28;20208;-75
2022/08/24 00:35:29;;;;;;;11.33;7.67;;;;;;;-141.28;100.00;48069.84;5053409;28;20209;-74
2022/08/24 00:37:56;;;;;;;9.87;7.87;;;;;;;-141.28;100.00;48058.06;5053393;28;20207;-74
2022/08/24 00:40:26;;;;;;;9.50;7.70;;;;;;;-141.28;100.00;48046.31;5053272;28;20252;-74
2022/08/24 00:42:55;;;;;;;13.77;8.97;;;;;;;-141.28;100.00;48056.13;5053565;28;20205;-74
2022/08/24 00:45:23;;;;;;;15.00;9.30;;;;;;;-141.28;100.00;48038.47;5046593;28;20198;-75
2022/08/24 00:47:55;;;;;;;14.27;8.53;;;;;;;-141.28;100.00;48030.63;5051638;28;20223;-74
2022/08/24 00:50:27;;;;;;;14.57;9.07;;;;;;;-141.28;100.00;48018.84;5053288;28;20215;-74
2022/08/24 00:53:01;;;;;;;13.57;9.30;;;;;;;-141.28;100.00;48022.75;5053297;28;20271;-74
2022/08/24 00:55:33;;;;;;;14.87;9.03;;;;;;;-141.28;100.00;48011.00;5053507;28;20271;-75
2022/08/24 00:58:07;;;;;;;14.40;9.60;;;;;;;-141.28;100.00;48003.16;5053000;28;20193;-75
2022/08/24 01:00:39;;;;;;;15.30;9.50;;;;;;;-141.28;100.00;48001.19;5040511;28;20555;-74
2022/08/24 01:03:08;;;;;;;14.77;9.53;;;;;;;-141.28;100.00;47995.31;5052743;28;20263;-75
2022/08/24 01:05:38;;;;;;;15.60;10.20;;;;;;;-141.28;100.00;47983.53;5052026;28;20654;-75
2022/08/24 01:08:10;;;;;;;16.57;10.70;;;;;;;-141.28;100.00;47977.66;5054657;28;20201;-74
2022/08/24 01:10:40;;;;;;;15.87;10.30;;;;;;;-141.28;100.00;47985.50;5057192;28;20193;-74
2022/08/24 01:13:09;;;;;;;22.63;10.73;;;;;;;-141.28;100.00;47971.78;5053079;28;20282;-74
2022/08/24 01:15:38;;;;;;;17.00;10.50;;;;;;;-141.28;100.00;47971.78;5052548;28;20207;-76
2022/08/24 01:20:59;;;;;;;16.17;10.57;;;;;;;-141.28;100.00;48001.19;5052777;28;20200;-74
2022/08/24 01:23:38;;;;;;;19.97;11.57;;;;;;;-141.28;100.00;47987.47;5049789;28;20222;-74
2022/08/24 01:26:06;;;;;;;14.93;10.73;;;;;;;-141.28;100.00;47971.78;5044297;28;20699;-76
2022/08/24 01:28:35;;;;;;;15.40;10.27;;;;;;;-141.28;100.00;47967.84;5051395;28;20201;-75
2022/08/24 01:31:02;;;;;;;13.77;9.83;;;;;;;-141.28;100.00;47960.00;5052329;28;20647;-75
2022/08/24 01:33:32;;;;;;;18.23;11.23;;;;;;;-141.28;100.00;47967.84;5040209;28;20200;-73
2022/08/24 01:36:08;;;;;;;16.57;11.27;;;;;;;-141.28;100.00;47960.00;5052586;28;20270;-74
2022/08/24 01:38:36;;;;;;;16.93;11.17;;;;;;;-141.28;100.00;47967.84;5052521;28;20245;-75
2022/08/24 01:41:06;;;;;;;13.70;10.57;;;;;;;-141.28;100.00;47958.03;5051960;28;20213;-75
2022/08/24 01:43:33;;;;;;;16.20;11.07;;;;;;;-141.28;100.00;47952.16;5052177;28;20296;-74
2022/08/24 01:46:01;;;;;;;18.30;10.07;;;;;;;-141.28;100.00;47940.38;5051877;28;20285;-76
2022/08/24 01:48:30;;;;;;;15.93;10.43;;;;;;;-141.28;100.00;47942.34;5052138;28;20205;-74
2022/08/24 01:50:57;;;;;;;20.23;10.73;;;;;;;-141.28;100.00;47938.44;5051848;28;20197;-74
2022/08/24 01:53:24;;;;;;;18.87;9.97;;;;;;;-141.28;100.00;47944.31;5051879;28;20197;-74
2022/08/24 01:55:53;;;;;;;14.67;10.00;;;;;;;-141.28;100.00;47948.22;5051792;28;20204;-75
2022/08/24 01:58:21;;;;;;;15.27;9.33;;;;;;;-141.28;100.00;47948.22;5052062;28;20269;-75
2022/08/24 02:00:48;;;;;;;15.37;9.77;;;;;;;-141.28;100.00;47940.38;5051742;28;20264;-74
2022/08/24 02:03:16;;;;;;;13.13;9.10;;;;;;;-141.28;100.00;47932.53;5051858;28;20235;-75
2022/08/24 02:05:46;;;;;;;10.70;9.60;;;;;;;-141.28;100.00;47934.50;5051706;28;20579;-75
2022/08/24 02:08:13;;;;;;;15.37;10.00;;;;;;;-141.28;100.00;47934.50;5051580;28;20212;-76
2022/08/24 02:10:41;;;;;;;21.10;10.20;;;;;;;-141.28;100.00;47924.69;5051457;28;20204;-75
2022/08/24 02:13:11;;;;;;;15.73;9.27;;;;;;;-141.28;100.00;47922.72;5051216;28;20648;-75
2022/08/24 02:15:39;;;;;;;14.13;9.17;;;;;;;-141.28;100.00;47928.63;5051807;28;20274;-74
2022/08/24 02:18:08;;;;;;;13.97;10.07;;;;;;;-141.28;100.00;47936.47;5051265;28;20197;-75
2022/08/24 02:20:37;;;;;;;16.13;10.30;;;;;;;-141.28;100.00;47928.63;5050959;28;20601;-74
2022/08/24 02:23:05;;;;;;;19.37;10.57;;;;;;;-141.28;100.00;47932.53;5051416;28;20241;-75
2022/08/24 02:25:33;;;;;;;12.97;9.93;;;;;;;-141.28;100.00;47912.94;5049733;28;20229;-74
2022/08/24 02:28:00;;;;;;;21.93;11.70;;;;;;;-141.28;100.00;47926.66;5050788;28;20664;-75
2022/08/24 02:30:31;;;;;;;18.03;12.67;;;;;;;-141.28;100.00;47936.47;5051361;28;20196;-74
2022/08/24 02:32:59;;;;;;;24.30;14.67;;;;;;;-141.28;100.00;47934.50;5051241;28;20679;-74
2022/08/24 02:35:28;;;;;;;21.60;15.03;;;;;;;-141.28;100.00;47920.78;5051291;28;20606;-76
2022/08/24 02:37:56;;;;;;;29.27;18.60;;;;;;;-141.28;100.00;47912.94;5051000;28;20216;-76
2022/08/24 02:40:23;;;;;;;34.37;21.53;;;;;;;-141.28;100.00;47909.00;5051268;28;20228;-74
2022/08/24 02:42:51;;;;;;;37.67;21.37;;;;;;;-141.28;100.00;47905.09;5050710;28;20275;-74
2022/08/24 02:45:18;;;;;;;41.63;23.37;;;;;;;-141.28;100.00;47897.25;5051111;28;20197;-74
2022/08/24 02:47:46;;;;;;;45.10;24.60;;;;;;;-141.28;100.00;47889.38;5050629;28;20670;-74
2022/08/24 02:50:15;;;;;;;43.00;23.47;;;;;;;-141.28;100.00;47873.69;5050903;28;20205;-74
2022/08/24 02:52:42;;;;;;;44.50;25.00;;;;;;;-141.28;100.00;47873.69;5050729;28;20693;-74
2022/08/24 02:55:16;;;;;;;44.90;26.13;;;;;;;-141.28;100.00;47861.94;5050505;28;20201;-74
2022/08/24 02:57:46;;;;;;;47.57;26.80;;;;;;;-141.28;100.00;47854.09;5050713;28;20188;-76
2022/08/24 03:00:16;;;;;;;46.77;25.87;;;;;;;-141.28;100.00;47848.19;5050381;28;20472;-74
2022/08/24 03:02:44;;;;;;;47.27;25.83;;;;;;;-141.28;100.00;47832.50;5050759;28;20632;-75
2022/08/24 03:05:14;;;;;;;58.63;27.73;;;;;;;-141.28;100.00;47834.47;5050772;28;20197;-73
2022/08/24 03:07:43;;;;;;;54.20;26.23;;;;;;;-141.28;100.00;47830.56;5050456;28;20769;-74
2022/08/24 03:10:10;;;;;;;47.93;26.83;;;;;;;-141.28;100.00;47822.72;5050845;28;20200;-75
2022/08/24 03:12:37;;;;;;;50.77;25.63;;;;;;;-141.28;100.00;47818.78;5050690;28;20219;-74
2022/08/24 03:15:07;;;;;;;43.30;26.83;;;;;;;-141.28;100.00;47818.78;5050472;28;20200;-74
2022/08/24 03:17:34;;;;;;;45.97;26.43;;;;;;;-141.28;100.00;47822.72;5049824;28;20259;-75
2022/08/24 03:20:02;;;;;;;48.03;25.27;;;;;;;-141.28;100.00;47814.84;5050481;28;20240;-75
2022/08/24 03:22:32;;;;;;;41.83;24.73;;;;;;;-141.28;100.00;47814.84;5050690;28;20236;-74
2022/08/24 03:24:59;;;;;;;38.77;24.00;;;;;;;-141.28;100.00;47812.91;5049789;28;20233;-75
2022/08/24 03:27:26;;;;;;;43.67;25.20;;;;;;;-141.28;100.00;47807.00;5050677;28;20201;-75
2022/08/24 03:29:54;;;;;;;41.53;23.97;;;;;;;-141.28;100.00;47814.84;5050017;28;20706;-73
2022/08/24 03:32:21;;;;;;;39.77;23.40;;;;;;;-141.28;100.00;47818.78;5050016;28;20204;-75
2022/08/24 03:34:49;;;;;;;42.47;24.57;;;;;;;-141.28;100.00;47814.84;5050112;28;20213;-74
2022/08/24 03:37:16;;;;;;;40.63;24.70;;;;;;;-141.28;100.00;47816.81;5055580;28;20217;-74
2022/08/24 03:39:46;;;;;;;37.87;24.27;;;;;;;-141.28;100.00;47818.78;5051124;28;20212;-76
2022/08/24 03:42:15;;;;;;;35.80;22.43;;;;;;;-141.28;100.00;47816.81;5049890;28;20221;-76
2022/08/24 03:44:42;;;;;;;34.57;23.17;;;;;;;-141.28;100.00;47826.63;5050220;28;20615;-74
2022/08/24 03:47:10;;;;;;;40.90;23.63;;;;;;;-141.28;100.00;47822.72;5049860;28;20204;-74
2022/08/24 03:49:39;;;;;;;39.83;22.50;;;;;;;-141.28;100.00;47826.63;5050197;28;20204;-75
2022/08/24 03:52:12;;;;;;;34.50;21.97;;;;;;;-141.28;100.00;47834.47;5050915;28;20216;-76
2022/08/24 03:54:51;;;;;;;34.20;20.70;;;;;;;-141.28;100.00;47828.59;5050953;28;20547;-74
2022/08/24 03:57:28;;;;;;;34.37;20.37;;;;;;;-141.28;100.00;47850.16;5050850;28;20203;-74
2022/08/24 03:59:56;;;;;;;27.90;17.70;;;;;;;-141.28;100.00;47838.41;5050576;28;20228;-75
2022/08/24 04:02:23;;;;;;;24.67;17.17;;;;;;;-141.28;100.00;47838.41;5049717;28;20207;-74
2022/08/24 04:04:51;;;;;;;26.23;17.53;;;;;;;-141.28;100.00;47846.25;5050141;28;20632;-74
2022/08/24 04:07:19;;;;;;;24.03;16.47;;;;;;;-141.28;100.00;47848.19;5050917;28;20204;-74
2022/08/24 04:09:46;;;;;;;19.37;15.77;;;;;;;-141.28;100.00;47865.84;5053978;28;20196;-76
2022/08/24 04:12:13;;;;;;;25.07;15.93;;;;;;;-141.28;100.00;47867.81;5053680;28;20205;-74
2022/08/24 04:14:43;;;;;;;22.23;16.17;;;;;;;-141.28;100.00;47885.47;5054352;28;20197;-76
2022/08/24 04:17:12;;;;;;;21.97;14.53;;;;;;;-141.28;100.00;47893.31;5053670;28;20281;-76
2022/08/24 04:19:56;;;;;;;20.13;14.20;;;;;;;-141.28;100.00;47897.25;5053755;28;20243;-75
2022/08/24 04:22:24;;;;;;;20.77;14.13;;;;;;;-141.28;100.00;47926.66;5053724;28;20201;-75
2022/08/24 04:24:52;;;;;;;23.57;14.03;;;;;;;-141.28;100.00;47924.69;5053395;28;20286;-74
2022/08/24 04:27:19;;;;;;;17.87;12.93;;;;;;;-141.28;100.00;47922.72;5053327;28;20209;-75
2022/08/24 04:29:49;;;;;;;16.80;13.33;;;;;;;-141.28;100.00;47934.50;5051020;28;20197;-75
2022/08/24 04:32:25;;;;;;;18.57;12.77;;;;;;;-141.28;100.00;47940.38;5052119;28;20651;-75
2022/08/24 04:34:53;;;;;;;17.23;11.03;;;;;;;-141.28;100.00;47975.69;5053313;28;20224;-76
2022/08/24 04:37:22;;;;;;;17.13;12.20;;;;;;;-141.28;100.00;47979.63;5053339;28;20687;-74
2022/08/24 04:39:49;;;;;;;13.83;10.70;;;;;;;-141.28;100.00;47995.31;5053256;28;20225;-75
2022/08/24 04:42:18;;;;;;;17.17;11.40;;;;;;;-141.28;100.00;48007.06;5053329;28;20201;-74
2022/08/24 04:44:46;;;;;;;13.83;11.13;;;;;;;-141.28;100.00;48036.50;5053277;28;20197;-74
2022/08/24 04:47:15;;;;;;;14.20;10.57;;;;;;;-141.28;100.00;48054.16;5053443;28;20287;-74
2022/08/24 04:49:42;;;;;;;12.83;10.47;;;;;;;-141.28;100.00;48073.75;5052661;28;20258;-75
2022/08/24 04:52:09;;;;;;;18.57;11.10;;;;;;;-141.28;100.00;48101.22;5053244;28;20201;-75
2022/08/24 04:54:37;;;;;;;16.37;10.40;;;;;;;-141.28;100.00;48122.81;5053281;28;20203;-74
2022/08/24 04:57:05;;;;;;;14.77;9.53;;;;;;;-141.28;100.00;48167.91;5056243;28;20204;-76
2022/08/24 04:59:32;;;;;;;13.40;9.83;;;;;;;-141.28;100.00;48203.22;5055467;28;20225;-75
2022/08/24 05:02:00;;;;;;;11.37;8.60;;;;;;;-141.28;100.00;48238.53;5053007;28;20574;-76
2022/08/24 05:04:29;;;;;;;11.00;9.13;;;;;;;-141.28;100.00;48254.22;5052698;28;20197;-75
2022/08/24 05:06:58;;;;;;;12.63;9.40;;;;;;;-141.28;100.00;48301.31;5053007;28;20193;-74
2022/08/24 05:09:26;;;;;;;13.40;9.50;;;;;;;-141.28;100.00;48336.63;5052684;28;20201;-74
2022/08/24 05:11:54;;;;;;;17.23;9.77;;;;;;;-141.28;100.00;48375.84;5052872;28;20201;-75
2022/08/24 05:14:21;;;;;;;16.10;9.83;;;;;;;-141.28;100.00;48422.94;5052437;28;20189;-74
2022/08/24 05:16:49;;;;;;;10.77;9.20;;;;;;;-141.28;100.00;48483.75;5052790;28;20587;-74
2022/08/24 05:19:16;;;;;;;14.03;9.87;;;;;;;-141.28;100.00;48532.78;5052232;28;20193;-74
2022/08/24 05:21:45;;;;;;;14.77;9.63;;;;;;;-141.28;100.00;48575.94;5084841;28;20197;-73
2022/08/24 05:24:12;;;;;;;17.73;9.83;;;;;;;-141.28;100.00;48581.81;5052209;28;20260;-75
2022/08/24 05:26:39;;;;;;;15.20;10.20;;;;;;;-141.28;100.00;48611.25;5052677;28;20196;-75
2022/08/24 05:29:10;;;;;;;13.07;9.27;;;;;;;-141.28;100.00;48650.50;5051054;28;20199;-74
2022/08/24 05:31:43;;;;;;;15.33;9.50;;;;;;;-141.28;100.00;48711.31;5052294;28;20648;-76
2022/08/24 05:34:13;;;;;;;11.60;8.90;;;;;;;-141.28;100.00;48742.69;5052622;28;20204;-74
2022/08/24 05:36:41;;;;;;;10.33;8.20;;;;;;;-141.28;100.00;48785.84;5052396;28;20288;-74
2022/08/24 05:39:12;;;;;;;13.83;8.40;;;;;;;-141.28;100.00;48827.06;5052341;28;20319;-75
2022/08/24 05:41:41;;;;;;;16.83;8.60;;;;;;;-141.28;100.00;48882.00;5058203;28;20579;-72
2022/08/24 05:44:13;;;;;;;8.97;6.70;;;;;;;-141.28;100.00;48987.94;5053168;28;20235;-76
2022/08/24 05:46:43;;;;;;;7.40;6.60;;;;;;;-141.28;100.00;49086.03;5052450;28;20323;-76
2022/08/24 05:49:13;;;;;;;8.80;6.93;;;;;;;-141.28;100.00;49176.28;5052233;28;20219;-74
2022/08/24 05:51:44;;;;;;;14.70;7.20;;;;;;;-141.28;100.00;49264.59;5051957;28;20200;-75
2022/08/24 05:54:15;;;;;;;16.90;7.77;;;;;;;-141.28;100.00;49341.13;5051990;28;20220;-75
2022/08/24 05:56:44;;;;;;;11.80;7.80;;;;;;;-141.28;100.00;49390.16;5052355;28;20197;-76
2022/08/24 05:59:12;;;;;;;12.23;7.33;;;;;;;-141.28;100.00;49500.06;5039088;28;20212;-74
2022/08/24 06:01:43;;;;;;;12.43;7.43;;;;;;;-141.28;100.00;49607.97;5051666;28;20227;-74
2022/08/24 06:04:10;;;;;;;16.53;7.47;;;;;;;-141.28;100.00;49690.41;5052082;28;20201;-75
2022/08/24 06:06:40;;;;;;;11.70;8.00;;;;;;;-141.28;100.00;49753.19;5051712;28;20209;-78
2022/08/24 06:09:14;;;;;;;18.30;8.10;;;;;;;-141.28;100.00;49833.66;5051737;28;20201;-73
2022/08/24 06:11:42;;;;;;;35.97;10.50;;;;;;;-141.28;100.00;49872.91;5052187;28;20346;-75
2022/08/24 06:14:11;;;;;;;25.23;7.47;;;;;;;-141.28;100.00;49898.44;5051594;28;20617;-75
2022/08/24 06:16:41;;;;;;;13.60;7.00;;;;;;;-141.28;100.00;50063.28;5051519;28;20204;-75
2022/08/24 06:19:10;;;;;;;13.77;7.07;;;;;;;-141.28;100.00;50080.94;5051607;28;20668;-75
2022/08/24 06:21:38;;;;;;;11.80;7.27;;;;;;;-141.28;100.00;50126.09;5053477;28;20256;-74
2022/08/24 06:24:06;;;;;;;10.70;7.13;;;;;;;-141.28;100.00;50208.53;5052149;28;20635;-77
2022/08/24 06:29:21;;;;;;;7.63;6.10;;;;;;;-141.28;100.00;50605.00;5045247;28;20212;-76
2022/08/24 06:31:49;;;;;;;11.40;6.70;;;;;;;-141.28;100.00;50620.72;5041436;28;20640;-73
2022/08/24 06:34:19;;;;;;;19.13;7.33;;;;;;;-141.28;100.00;50608.94;5051526;28;20369;-76
2022/08/24 06:36:46;;;;;;;14.47;6.47;;;;;;;-141.28;100.00;50648.19;5052466;28;20208;-76
2022/08/24 06:39:15;;;;;;;9.23;5.77;;;;;;;-141.28;100.00;50724.75;5051018;28;20283;-75
2022/08/24 06:41:45;;;;;;;9.37;6.60;;;;;;;-141.28;100.00;50848.44;5045633;28;20274;-73
2022/08/24 06:44:13;;;;;;;7.57;6.10;;;;;;;-141.28;100.00;50970.13;5044220;28;20205;-75
2022/08/24 06:46:41;;;;;;;9.93;6.77;;;;;;;-141.28;100.00;51036.88;5051154;28;20558;-73
2022/08/24 06:49:10;;;;;;;9.50;6.33;;;;;;;-141.28;100.00;51123.28;5051008;28;20259;-77
2022/08/24 06:51:37;;;;;;;9.97;5.63;;;;;;;-141.28;100.00;51284.25;5051017;28;20235;-74
2022/08/24 06:54:05;;;;;;;9.03;5.83;;;;;;;-141.28;100.00;51315.66;5050894;28;20197;-74
2022/08/24 06:56:34;;;;;;;8.00;5.97;;;;;;;-141.28;100.00;51321.56;5048595;28;20232;-75
2022/08/24 06:59:03;;;;;;;5.23;4.73;;;;;;;-141.28;100.00;51239.09;5050562;28;20217;-74
2022/08/24 07:01:31;;;;;;;6.00;5.37;;;;;;;-141.28;100.00;51138.97;5050946;28;20229;-75
2022/08/24 07:03:58;;;;;;;11.93;6.47;;;;;;;-141.28;100.00;51084.00;5050863;28;20667;-76
2022/08/24 07:06:26;;;;;;;5.83;5.10;;;;;;;-141.28;100.00;51062.41;5051034;28;20201;-74
2022/08/24 07:08:55;;;;;;;13.60;5.83;;;;;;;-141.28;100.00;50997.63;5050786;28;20205;-75
2022/08/24 07:11:23;;;;;;;7.70;4.77;;;;;;;-141.28;100.00;51001.56;5050737;28;20284;-76
2022/08/24 07:13:51;;;;;;;5.67;4.77;;;;;;;-141.28;100.00;50985.84;5050831;28;20205;-76
2022/08/24 07:16:21;;;;;;;6.60;4.50;;;;;;;-141.28;100.00;50981.91;5050356;28;20202;-75
2022/08/24 07:18:48;;;;;;;7.23;4.80;;;;;;;-141.28;100.00;51009.41;5050476;28;20204;-74
2022/08/24 07:21:18;;;;;;;6.60;5.37;;;;;;;-141.28;100.00;51032.97;5037803;28;20239;-73
2022/08/24 07:23:46;;;;;;;8.10;4.90;;;;;;;-141.28;100.00;51048.66;5049245;28;20278;-75
2022/08/24 07:26:17;;;;;;;7.57;4.50;;;;;;;-141.28;100.00;51082.03;5038849;28;20248;-74
2022/08/24 07:28:46;;;;;;;6.83;4.07;;;;;;;-141.28;100.00;51166.47;5049474;28;20652;-75
2022/08/24 07:31:13;;;;;;;8.50;4.73;;;;;;;-141.28;100.00;51284.25;5050129;28;20577;-74
2022/08/24 07:33:42;;;;;;;7.77;4.97;;;;;;;-141.28;100.00;51349.06;5050538;28;20723;-76
2022/08/24 07:36:16;;;;;;;4.97;4.47;;;;;;;-141.28;100.00;51447.22;5050014;28;20574;-75
2022/08/24 07:38:56;;;;;;;9.53;5.40;;;;;;;-141.28;100.00;51374.56;5049210;28;20647;-74
2022/08/24 07:41:26;;;;;;;6.87;4.13;;;;;;;-141.28;100.00;51464.88;5051447;28;20220;-77
2022/08/24 07:43:55;;;;;;;5.70;3.87;;;;;;;-141.28;100.00;51673.03;5058772;28;20279;-77
2022/08/24 07:46:22;;;;;;;6.70;3.73;;;;;;;-141.28;100.00;51896.88;5055299;28;20197;-74
2022/08/24 07:48:50;;;;;;;4.30;3.90;;;;;;;-141.28;100.00;52163.94;5054249;28;20196;-74
2022/08/24 07:51:19;;;;;;;5.87;4.20;;;;;;;-141.28;100.00;52228.75;5054015;28;20681;-74
2022/08/24 07:53:47;;;;;;;4.63;3.90;;;;;;;-141.28;100.00;52207.16;5054901;28;20627;-76
2022/08/24 07:56:14;;;;;;;5.97;4.63;;;;;;;-141.28;100.00;52187.50;5054916;28;20207;-76
2022/08/24 07:58:42;;;;;;;6.07;4.33;;;;;;;-141.28;100.00;52332.84;5054170;28;20208;-74
2022/08/24 08:01:10;;;;;;;4.33;3.67;;;;;;;-141.28;100.00;52199.28;5054465;28;20231;-76
2022/08/24 08:03:37;;;;;;;4.77;3.53;;;;;;;-141.28;100.00;52207.16;5086569;28;20193;-75
2022/08/24 08:06:09;;;;;;;4.97;3.63;;;;;;;-141.28;100.00;52260.19;5054441;28;20634;-75
2022/08/24 08:08:38;;;;;;;3.37;3.07;;;;;;;-141.28;100.00;52201.25;5054395;28;20205;-75
2022/08/24 08:11:07;;;;;;;5.63;3.53;;;;;;;-141.28;100.00;52201.25;5053373;28;20674;-76
2022/08/24 08:13:35;;;;;;;5.43;4.17;;;;;;;-141.28;100.00;52252.31;5053887;28;20288;-76
2022/08/24 08:16:04;;;;;;;7.53;3.80;;;;;;;-141.28;100.00;52179.66;5085579;28;20199;-75
2022/08/24 08:18:32;;;;;;;6.27;3.93;;;;;;;-141.28;100.00;52215.00;5053485;28;20339;-74
2022/08/24 08:21:00;;;;;;;5.07;4.57;;;;;;;-141.28;100.00;52270.00;5053147;28;20225;-75
2022/08/24 08:26:16;;;;;;;8.00;4.17;;;;;;;-141.28;100.00;52238.56;5042016;28;20263;-74
2022/08/24 08:28:43;;;;;;;7.23;4.27;;;;;;;-141.28;100.00;52213.03;5052372;28;20189;-75
2022/08/24 08:31:10;;;;;;;7.97;3.70;;;;;;;-141.28;100.00;52175.72;5052764;28;20204;-74
2022/08/24 08:33:38;;;;;;;4.57;3.20;;;;;;;-141.28;100.00;52148.25;5053367;28;20197;-74
2022/08/24 08:36:08;;;;;;;3.90;3.53;;;;;;;-141.28;100.00;52171.81;5052864;28;20221;-75
2022/08/24 08:38:39;;;;;;;8.87;4.03;;;;;;;-141.28;100.00;52148.25;5055394;28;20228;-75
2022/08/24 08:41:27;;;;;;;6.47;3.93;;;;;;;-141.28;100.00;52128.59;5056638;28;20228;-75
2022/08/24 08:44:00;;;;;;;7.07;4.63;;;;;;;-141.28;100.00;52128.59;5053550;28;20205;-76
2022/08/24 08:46:41;;;;;;;8.40;4.13;;;;;;;-141.28;100.00;52073.63;5040893;28;20197;-75
2022/08/24 08:49:23;;;;;;;4.87;4.00;;;;;;;-141.28;100.00;52085.41;5050647;28;20203;-74
2022/08/24 08:52:23;;;;;;;5.27;3.83;;;;;;;-141.28;100.00;52030.41;5045284;28;20275;-74
2022/08/24 08:54:59;;;;;;;4.63;3.70;;;;;;;-141.28;100.00;52071.66;5042144;28;20197;-75
2022/08/24 08:57:45;;;;;;;5.33;3.57;;;;;;;-141.28;100.00;52036.31;5052901;28;20216;-74
2022/08/24 09:00:18;;;;;;;5.97;3.97;;;;;;;-141.28;100.00;52038.25;5053210;28;20209;-75
2022/08/24 09:03:15;;;;;;;4.53;3.87;;;;;;;-141.28;100.00;51991.13;5052765;28;20224;-77
2022/08/24 09:06:12;;;;;;;11.47;4.13;;;;;;;-141.28;100.00;52020.59;5047946;28;20288;-75
2022/08/24 09:09:05;;;;;;;5.87;4.00;;;;;;;-141.28;100.00;51983.28;5047773;28;20205;-74
2022/08/24 09:11:51;;;;;;;5.43;4.00;;;;;;;-141.28;100.00;51963.63;5052990;28;20205;-75
2022/08/24 09:14:44;;;;;;;6.23;3.80;;;;;;;-141.28;100.00;51904.72;5042180;28;20205;-75
2022/08/24 09:17:28;;;;;;;8.23;4.30;;;;;;;-141.28;100.00;51830.09;5043404;28;20202;-74
2022/08/24 09:20:08;;;;;;;9.83;4.87;;;;;;;-141.28;100.00;51900.81;5052485;28;20196;-74
2022/08/24 09:22:42;;;;;;;7.63;4.70;;;;;;;-141.28;100.00;51947.94;5052498;28;20252;-74
2022/08/24 09:25:28;;;;;;;4.77;4.33;;;;;;;-141.28;100.00;51906.69;5050786;28;20308;-74
2022/08/24 09:28:14;;;;;;;7.07;3.97;;;;;;;-141.28;100.00;51918.47;5052216;28;20227;-74
2022/08/24 09:31:00;;;;;;;7.10;4.23;;;;;;;-141.28;100.00;51932.22;5051164;28;20544;-75
2022/08/24 09:33:35;;;;;;;6.03;4.03;;;;;;;-141.28;100.00;51932.22;5039174;28;20645;-75
2022/08/24 09:36:11;;;;;;;6.63;4.30;;;;;;;-141.28;100.00;52108.97;5051838;28;20212;-74
2022/08/24 09:38:58;;;;;;;9.97;4.83;;;;;;;-141.28;100.00;52026.47;5052274;28;20644;-76
2022/08/24 09:41:51;;;;;;;6.47;4.33;;;;;;;-141.28;100.00;51979.34;5053268;28;20252;-73
2022/08/24 09:44:59;;;;;;;8.30;4.80;;;;;;;-141.28;100.00;51904.72;5054591;28;20201;-75
2022/08/24 09:47:47;;;;;;;7.07;5.00;;;;;;;-141.28;100.00;51853.69;5051685;28;20199;-74
2022/08/24 09:50:54;;;;;;;6.97;4.10;;;;;;;-141.28;100.00;51806.53;5052126;28;20224;-75
2022/08/24 09:53:47;;;;;;;8.37;4.47;;;;;;;-141.28;100.00;51767.28;5042345;28;20198;-74
2022/08/24 09:56:38;;;;;;;9.53;4.10;;;;;;;-141.28;100.00;51712.28;5041124;28;20198;-75
2022/08/24 09:59:21;;;;;;;8.17;4.00;;;;;;;-141.28;100.00;51598.41;5051934;28;20248;-75
2022/08/24 10:02:07;;;;;;;9.50;4.50;;;;;;;-141.28;100.00;51614.13;5052195;28;20589;-75
2022/08/24 10:04:43;;;;;;;8.10;4.30;;;;;;;-141.28;100.00;51543.44;5038603;28;20208;-76
2022/08/24 10:07:18;;;;;;;7.63;3.87;;;;;;;-141.28;100.00;51504.16;5038131;28;20213;-75
2022/08/24 10:10:01;;;;;;;5.67;3.83;;;;;;;-141.28;100.00;51272.47;5051817;28;20226;-76
2022/08/24 10:12:54;;;;;;;6.67;4.23;;;;;;;-141.28;100.00;51099.72;5051656;28;20662;-74
2022/08/24 10:15:28;;;;;;;6.40;3.70;;;;;;;-141.28;100.00;50870.03;5051588;28;20663;-77
2022/08/24 10:18:16;;;;;;;6.23;3.63;;;;;;;-141.28;100.00;50522.56;5051424;28;20204;-76
2022/08/24 10:21:01;;;;;;;6.13;4.20;;;;;;;-141.28;100.00;50247.78;5031669;28;20202;-74
2022/08/24 10:23:45;;;;;;;5.03;3.83;;;;;;;-141.28;100.00;50145.72;5048483;28;20206;-76
2022/08/24 10:26:21;;;;;;;6.70;3.80;;;;;;;-141.28;100.00;50224.22;5051090;28;20230;-76
2022/08/24 10:29:17;;;;;;;9.57;4.10;;;;;;;-141.28;100.00;50400.88;5047163;28;20205;-75
2022/08/24 10:32:02;;;;;;;8.63;4.50;;;;;;;-141.28;100.00;50608.94;5051015;28;20202;-75
2022/08/24 10:34:53;;;;;;;7.63;3.90;;;;;;;-141.28;100.00;50679.59;5051332;28;20672;-75
2022/08/24 10:39:39;;;;;;;4.70;4.20;;;;;;;-141.28;100.00;50585.38;5051401;28;20210;-75
2022/08/24 10:40:43;;;;;;;6.10;3.93;;;;;;;-141.28;100.00;50232.06;5040767;28;20201;-74
2022/08/24 10:43:47;;;;;;;6.77;4.03;;;;;;;-141.28;100.00;50112.34;5050729;28;20252;-76
2022/08/24 10:46:36;;;;;;;9.07;4.27;;;;;;;-141.28;100.00;50153.56;5041165;28;20200;-75
2022/08/24 10:49:46;;;;;;;5.73;4.00;;;;;;;-141.28;100.00;50290.97;5051522;28;20274;-74
2022/08/24 10:52:53;;;;;;;5.00;4.03;;;;;;;-141.28;100.00;50520.59;5051023;28;20305;-77
2022/08/24 10:55:24;;;;;;;10.37;4.63;;;;;;;-141.28;100.00;50824.88;4974948;28;20246;-75
2022/08/24 10:58:10;;;;;;;7.97;4.67;;;;;;;-141.28;100.00;50938.72;5040068;28;20548;-75
2022/08/24 11:00:40;;;;;;;4.53;4.03;;;;;;;-141.28;100.00;50789.53;5049303;28;20219;-77
2022/08/24 11:03:11;;;;;;;7.17;3.73;;;;;;;-141.28;100.00;50762.06;5048888;28;20229;-75
2022/08/24 11:05:45;;;;;;;4.80;4.00;;;;;;;-141.28;100.00;50726.72;5048017;28;20284;-76
2022/08/24 11:08:19;;;;;;;4.90;3.93;;;;;;;-141.28;100.00;50553.97;5049941;28;20214;-78
2022/08/24 11:11:02;;;;;;;9.30;4.40;;;;;;;-141.28;100.00;50324.31;5049004;28;20205;-76
2022/08/24 11:13:29;;;;;;;5.77;3.50;;;;;;;-141.28;100.00;49965.16;5050264;28;20200;-76
2022/08/24 11:15:59;;;;;;;13.13;4.60;;;;;;;-141.28;100.00;49892.53;5048414;28;20199;-75
2022/08/24 11:18:27;;;;;;;7.30;4.07;;;;;;;-141.28;100.00;50137.88;5050234;28;20205;-74
2022/08/24 11:20:56;;;;;;;8.53;4.10;;;;;;;-141.28;100.00;49902.34;5049876;28;20199;-74
2022/08/24 11:23:26;;;;;;;8.43;4.10;;;;;;;-141.28;100.00;50157.50;5050070;28;20285;-75
2022/08/24 11:25:59;;;;;;;9.30;4.00;;;;;;;-141.28;100.00;50243.84;5049701;28;20278;-75
2022/08/24 11:28:33;;;;;;;6.10;4.43;;;;;;;-141.28;100.00;49961.22;5048950;28;20289;-74
2022/08/24 11:31:21;;;;;;;8.57;4.20;;;;;;;-141.28;100.00;50002.44;5050082;28;20194;-76
2022/08/24 11:33:59;;;;;;;12.23;4.90;;;;;;;-141.28;100.00;49973.00;5040051;28;20216;-77